createdAt,value
2019-06-15T00:00:25.802Z,24.60
2019-06-15T00:02:55.267Z,24.70
2019-06-15T00:05:24.750Z,24.80
2019-06-15T00:07:54.811Z,24.50
2019-06-15T00:10:24.304Z,24.70
2019-06-15T00:12:53.793Z,24.80
2019-06-15T00:15:23.362Z,24.70
2019-06-15T00:17:52.791Z,24.70
2019-06-15T00:20:22.254Z,24.30
2019-06-15T00:22:51.735Z,24.20
2019-06-15T00:25:21.164Z,24.30
2019-06-15T00:27:50.633Z,24.30
2019-06-15T00:30:21.323Z,24.20
2019-06-15T00:32:50.788Z,24.10
2019-06-15T00:35:20.360Z,24.10
2019-06-15T00:37:49.792Z,24.10
2019-06-15T00:40:19.687Z,24.00
2019-06-15T00:42:49.122Z,23.90
2019-06-15T00:45:18.600Z,24.00
2019-06-15T00:47:48.087Z,23.90
2019-06-15T00:50:17.655Z,24.10
2019-06-15T00:52:47.148Z,24.00
2019-06-15T00:55:16.863Z,23.80
2019-06-15T00:57:46.353Z,23.80
2019-06-15T01:00:17.815Z,23.90
2019-06-15T01:02:47.304Z,23.80
2019-06-15T01:05:17.160Z,23.90
2019-06-15T01:07:46.648Z,23.80
2019-06-15T01:10:16.613Z,23.70
2019-06-15T01:12:46.344Z,23.60
2019-06-15T01:15:16.409Z,23.60
2019-06-15T01:17:45.844Z,23.70
2019-06-15T01:20:16.235Z,23.60
2019-06-15T01:22:45.985Z,23.70
2019-06-15T01:25:16.927Z,23.70
2019-06-15T01:27:46.383Z,23.60
2019-06-15T01:30:17.538Z,23.60
2019-06-15T01:32:46.967Z,23.60
2019-06-15T01:35:16.633Z,23.40
2019-06-15T01:37:46.160Z,23.40
2019-06-15T01:40:17.236Z,23.50
2019-06-15T01:42:46.672Z,23.40
2019-06-15T01:45:18.931Z,23.30
2019-06-15T01:47:48.385Z,23.40
2019-06-15T01:50:18.355Z,23.40
2019-06-15T01:52:47.811Z,23.30
2019-06-15T01:55:20.890Z,23.30
2019-06-15T01:57:48.434Z,23.30
2019-06-15T02:00:25.426Z,23.20
2019-06-15T02:02:54.874Z,23.30
2019-06-15T02:05:24.359Z,23.10
2019-06-15T02:07:53.812Z,23.20
2019-06-15T02:10:32.918Z,23.20
2019-06-15T02:13:03.259Z,23.10
2019-06-15T02:15:32.793Z,23.10
2019-06-15T02:18:02.202Z,23.10
2019-06-15T02:20:31.696Z,23.00
2019-06-15T02:23:01.130Z,23.20
2019-06-15T02:25:36.477Z,22.90
2019-06-15T02:28:03.567Z,22.90
2019-06-15T02:30:34.861Z,23.00
2019-06-15T02:33:04.942Z,23.00
2019-06-15T02:35:35.322Z,23.20
2019-06-15T02:38:04.931Z,23.00
2019-06-15T02:40:34.366Z,22.90
2019-06-15T02:43:03.974Z,22.80
2019-06-15T02:45:33.451Z,22.90
2019-06-15T02:48:02.915Z,22.80
2019-06-15T02:50:33.379Z,22.80
2019-06-15T02:53:02.840Z,22.80
2019-06-15T02:55:32.482Z,22.80
2019-06-15T02:58:01.940Z,22.90
2019-06-15T03:00:44.679Z,22.90
2019-06-15T03:03:14.111Z,22.70
2019-06-15T03:05:43.566Z,22.80
2019-06-15T03:08:13.057Z,22.70
2019-06-15T03:10:42.542Z,22.80
2019-06-15T03:13:14.189Z,22.80
2019-06-15T03:15:43.636Z,22.70
2019-06-15T03:18:13.090Z,22.50
2019-06-15T03:20:42.570Z,22.60
2019-06-15T03:23:12.199Z,22.70
2019-06-15T03:25:41.727Z,22.70
2019-06-15T03:28:11.182Z,22.50
2019-06-15T03:30:42.533Z,22.60
2019-06-15T03:33:12.030Z,22.60
2019-06-15T03:35:41.464Z,22.50
2019-06-15T03:38:10.933Z,22.50
2019-06-15T03:40:41.812Z,22.60
2019-06-15T03:43:11.760Z,22.70
2019-06-15T03:45:41.212Z,22.60
2019-06-15T03:48:10.830Z,22.60
2019-06-15T03:50:40.266Z,22.80
2019-06-15T03:53:09.762Z,22.60
2019-06-15T03:55:40.597Z,22.70
2019-06-15T03:58:10.046Z,22.60
2019-06-15T04:00:48.573Z,22.60
2019-06-15T04:03:18.224Z,22.50
2019-06-15T04:05:47.659Z,22.40
2019-06-15T04:08:17.116Z,22.50
2019-06-15T04:10:46.634Z,22.50
2019-06-15T04:13:16.136Z,22.60
2019-06-15T04:15:45.569Z,22.40
2019-06-15T04:18:15.062Z,22.50
2019-06-15T04:20:44.513Z,22.50
2019-06-15T04:23:13.992Z,22.50
2019-06-15T04:25:44.363Z,22.60
2019-06-15T04:28:13.891Z,22.60
2019-06-15T04:30:44.090Z,22.80
2019-06-15T04:33:13.570Z,22.70
2019-06-15T04:35:43.079Z,22.70
2019-06-15T04:38:12.527Z,22.80
2019-06-15T04:40:42.133Z,22.90
2019-06-15T04:43:11.590Z,22.80
2019-06-15T04:45:41.049Z,22.80
2019-06-15T04:48:10.550Z,22.90
2019-06-15T04:50:40.230Z,22.90
2019-06-15T04:53:09.728Z,23.00
2019-06-15T04:55:39.174Z,23.00
2019-06-15T04:58:08.615Z,23.10
2019-06-15T05:00:38.225Z,23.10
2019-06-15T05:03:07.693Z,23.20
2019-06-15T05:05:37.225Z,23.30
2019-06-15T05:08:06.713Z,23.30
2019-06-15T05:10:36.169Z,23.30
2019-06-15T05:13:05.717Z,23.30
2019-06-15T05:15:35.193Z,23.50
2019-06-15T05:18:04.736Z,23.50
2019-06-15T05:20:34.182Z,23.60
2019-06-15T05:23:03.643Z,23.70
2019-06-15T05:25:33.079Z,23.70
2019-06-15T05:28:02.566Z,23.80
2019-06-15T05:30:32.021Z,23.90
2019-06-15T05:33:01.488Z,24.00
2019-06-15T05:35:30.968Z,24.00
2019-06-15T05:38:00.402Z,24.10
2019-06-15T05:40:29.961Z,24.20
2019-06-15T05:42:59.407Z,24.30
2019-06-15T05:45:28.920Z,24.40
2019-06-15T05:47:58.362Z,24.40
2019-06-15T05:50:27.855Z,24.50
2019-06-15T05:52:57.309Z,24.70
2019-06-15T05:55:26.781Z,24.70
2019-06-15T05:57:56.214Z,24.80
2019-06-15T06:00:26.312Z,24.80
2019-06-15T06:02:56.135Z,25.00
2019-06-15T06:05:25.713Z,25.00
2019-06-15T06:07:55.240Z,25.00
2019-06-15T06:10:24.774Z,25.00
2019-06-15T06:12:54.202Z,25.00
2019-06-15T06:15:26.690Z,25.00
2019-06-15T06:17:55.001Z,25.10
2019-06-15T06:20:24.690Z,25.10
2019-06-15T06:22:54.125Z,25.10
2019-06-15T06:25:23.637Z,25.10
2019-06-15T06:27:53.101Z,25.20
2019-06-15T06:30:22.808Z,25.30
2019-06-15T06:32:52.289Z,25.20
2019-06-15T06:35:21.757Z,25.30
2019-06-15T06:37:51.216Z,25.30
2019-06-15T06:40:21.191Z,25.40
2019-06-15T06:42:50.664Z,25.40
2019-06-15T06:45:20.532Z,25.40
2019-06-15T06:47:50.029Z,25.50
2019-06-15T06:50:19.777Z,25.50
2019-06-15T06:52:52.771Z,25.50
2019-06-15T06:55:22.255Z,25.60
2019-06-15T06:57:56.214Z,25.70
2019-06-15T07:00:24.052Z,25.80
2019-06-15T07:02:53.531Z,25.80
2019-06-15T07:05:22.959Z,25.90
2019-06-15T07:07:52.492Z,25.90
2019-06-15T07:10:21.961Z,26.00
2019-06-15T07:12:51.457Z,26.10
2019-06-15T07:15:21.577Z,26.20
2019-06-15T07:17:51.069Z,26.20
2019-06-15T07:20:20.599Z,26.30
2019-06-15T07:22:50.105Z,26.40
2019-06-15T07:25:19.763Z,26.40
2019-06-15T07:27:49.234Z,26.40
2019-06-15T07:30:19.093Z,26.50
2019-06-15T07:32:48.551Z,26.60
2019-06-15T07:35:18.151Z,26.60
2019-06-15T07:37:47.658Z,26.70
2019-06-15T07:40:18.792Z,26.70
2019-06-15T07:42:48.255Z,26.70
2019-06-15T07:45:18.050Z,26.70
2019-06-15T07:47:47.498Z,26.90
2019-06-15T07:50:17.006Z,26.90
2019-06-15T07:52:46.434Z,27.10
2019-06-15T07:55:16.397Z,27.00
2019-06-15T07:57:45.829Z,27.30
2019-06-15T08:00:16.036Z,27.30
2019-06-15T08:02:45.468Z,27.40
2019-06-15T08:05:15.252Z,27.40
2019-06-15T08:07:44.880Z,27.40
2019-06-15T08:10:14.742Z,27.50
2019-06-15T08:12:44.207Z,27.60
2019-06-15T08:15:14.236Z,27.80
2019-06-15T08:17:45.683Z,27.80
2019-06-15T08:20:16.034Z,28.00
2019-06-15T08:22:45.456Z,28.00
2019-06-15T08:25:14.943Z,28.00
2019-06-15T08:27:44.425Z,28.20
2019-06-15T08:30:14.432Z,28.30
2019-06-15T08:32:43.884Z,28.40
2019-06-15T08:35:13.683Z,28.30
2019-06-15T08:37:43.147Z,28.60
2019-06-15T08:40:12.945Z,28.60
2019-06-15T08:42:42.411Z,28.50
2019-06-15T08:45:12.358Z,28.70
2019-06-15T08:47:41.861Z,29.00
2019-06-15T08:50:12.061Z,28.90
2019-06-15T08:52:41.512Z,29.10
2019-06-15T08:55:11.508Z,29.10
2019-06-15T08:57:40.987Z,29.20
2019-06-15T09:00:11.349Z,29.30
2019-06-15T09:02:40.830Z,29.60
2019-06-15T09:05:11.022Z,29.50
2019-06-15T09:07:40.484Z,29.60
2019-06-15T09:10:11.061Z,29.60
2019-06-15T09:12:40.568Z,29.60
2019-06-15T09:15:11.038Z,29.60
2019-06-15T09:17:40.500Z,29.80
2019-06-15T09:20:11.304Z,29.80
2019-06-15T09:22:40.761Z,29.70
2019-06-15T09:25:10.570Z,29.90
2019-06-15T09:27:40.028Z,30.10
2019-06-15T09:30:10.301Z,30.20
2019-06-15T09:32:39.789Z,30.20
2019-06-15T09:35:09.746Z,30.20
2019-06-15T09:37:39.256Z,30.40
2019-06-15T09:40:10.321Z,30.50
2019-06-15T09:42:39.750Z,30.40
2019-06-15T09:45:10.038Z,30.50
2019-06-15T09:47:39.485Z,30.60
2019-06-15T09:50:09.381Z,30.80
2019-06-15T09:52:38.811Z,30.80
2019-06-15T09:55:08.623Z,30.90
2019-06-15T09:57:38.074Z,30.80
2019-06-15T10:00:10.333Z,31.00
2019-06-15T10:02:40.125Z,31.20
2019-06-15T10:05:11.524Z,31.30
2019-06-15T10:07:40.998Z,31.30
2019-06-15T10:10:11.158Z,31.40
2019-06-15T10:12:40.616Z,31.60
2019-06-15T10:15:10.743Z,31.50
2019-06-15T10:17:40.213Z,31.30
2019-06-15T10:20:12.037Z,31.60
2019-06-15T10:22:41.571Z,31.80
2019-06-15T10:25:11.706Z,31.90
2019-06-15T10:27:41.199Z,32.10
2019-06-15T10:30:11.127Z,31.90
2019-06-15T10:32:40.588Z,32.10
2019-06-15T10:35:10.372Z,31.90
2019-06-15T10:37:39.873Z,32.20
2019-06-15T10:40:11.330Z,32.40
2019-06-15T10:42:40.775Z,32.40
2019-06-15T10:45:12.558Z,32.30
2019-06-15T10:47:42.031Z,32.30
2019-06-15T10:50:12.293Z,32.40
2019-06-15T10:52:53.819Z,32.50
2019-06-15T10:55:23.287Z,32.60
2019-06-15T10:57:52.831Z,32.80
2019-06-15T11:00:23.014Z,32.90
2019-06-15T11:02:52.466Z,32.60
2019-06-15T11:05:22.371Z,32.90
2019-06-15T11:07:51.822Z,33.20
2019-06-15T11:10:50.234Z,33.30
2019-06-15T11:13:19.840Z,33.40
2019-06-15T11:15:49.680Z,33.30
2019-06-15T11:18:19.194Z,33.40
2019-06-15T11:20:48.670Z,33.50
2019-06-15T11:23:18.373Z,33.60
2019-06-15T11:25:47.868Z,33.60
2019-06-15T11:28:17.304Z,33.60
2019-06-15T11:30:46.808Z,33.80
2019-06-15T11:33:16.226Z,33.90
2019-06-15T11:35:46.230Z,33.70
2019-06-15T11:38:15.675Z,33.90
2019-06-15T11:40:45.311Z,34.10
2019-06-15T11:43:14.771Z,34.20
2019-06-15T11:45:44.254Z,34.10
2019-06-15T11:48:13.682Z,34.20
2019-06-15T11:50:43.142Z,34.10
2019-06-15T11:53:12.631Z,34.30
2019-06-15T11:55:42.070Z,34.40
2019-06-15T11:58:11.547Z,34.60
2019-06-15T12:00:42.397Z,34.50
2019-06-15T12:03:11.928Z,34.50
2019-06-15T12:05:41.364Z,34.70
2019-06-15T12:08:10.831Z,34.80
2019-06-15T12:10:40.284Z,34.90
2019-06-15T12:13:09.826Z,34.80
2019-06-15T12:15:39.282Z,35.00
2019-06-15T12:18:08.740Z,35.00
2019-06-15T12:20:39.097Z,34.90
2019-06-15T12:23:08.727Z,35.10
2019-06-15T12:25:38.213Z,35.20
2019-06-15T12:28:07.793Z,35.10
2019-06-15T12:30:48.850Z,35.30
2019-06-15T12:33:12.846Z,35.40
2019-06-15T12:35:42.371Z,35.60
2019-06-15T12:38:12.022Z,35.80
2019-06-15T12:40:41.437Z,35.90
2019-06-15T12:43:10.954Z,35.80
2019-06-15T12:45:41.132Z,35.90
2019-06-15T12:48:10.582Z,35.90
2019-06-15T12:50:40.074Z,35.90
2019-06-15T12:53:09.513Z,35.60
2019-06-15T12:55:39.006Z,35.90
2019-06-15T12:58:08.422Z,35.90
2019-06-15T13:00:38.989Z,36.00
2019-06-15T13:03:08.533Z,36.30
2019-06-15T13:05:37.982Z,36.30
2019-06-15T13:08:07.642Z,36.40
2019-06-15T13:10:37.096Z,35.80
2019-06-15T13:13:06.646Z,36.20
2019-06-15T13:15:36.073Z,36.50
2019-06-15T13:18:05.766Z,36.80
2019-06-15T13:20:35.425Z,36.50
2019-06-15T13:23:04.877Z,36.40
2019-06-15T13:25:34.380Z,36.60
2019-06-15T13:28:10.239Z,36.50
2019-06-15T13:30:39.984Z,36.80
2019-06-15T13:33:09.442Z,37.00
2019-06-15T13:35:38.947Z,37.00
2019-06-15T13:38:08.412Z,37.00
2019-06-15T13:40:37.904Z,37.20
2019-06-15T13:43:07.401Z,37.00
2019-06-15T13:45:36.842Z,37.40
2019-06-15T13:48:06.300Z,37.50
2019-06-15T13:50:35.773Z,37.30
2019-06-15T13:53:05.388Z,37.40
2019-06-15T13:55:34.904Z,37.70
2019-06-15T13:58:04.370Z,37.70
2019-06-15T14:00:33.810Z,37.60
2019-06-15T14:03:03.294Z,37.50
2019-06-15T14:05:32.756Z,37.90
2019-06-15T14:08:02.255Z,37.80
2019-06-15T14:10:31.682Z,38.30
2019-06-15T14:13:01.136Z,38.60
2019-06-15T14:15:30.570Z,38.70
2019-06-15T14:18:00.063Z,38.60
2019-06-15T14:20:29.512Z,39.30
2019-06-15T14:22:58.957Z,38.60
2019-06-15T14:25:28.438Z,38.50
2019-06-15T14:27:57.871Z,37.80
2019-06-15T14:30:27.407Z,37.80
2019-06-15T14:32:57.004Z,37.80
2019-06-15T14:35:26.453Z,36.60
2019-06-15T14:37:55.984Z,37.70
2019-06-15T14:40:25.442Z,37.80
2019-06-15T14:42:54.899Z,37.50
2019-06-15T14:45:24.516Z,37.60
2019-06-15T14:47:53.942Z,37.70
2019-06-15T14:50:23.423Z,37.60
2019-06-15T14:52:52.884Z,37.40
2019-06-15T14:55:26.100Z,37.60
2019-06-15T14:57:54.784Z,37.70
2019-06-15T15:00:25.756Z,37.50
2019-06-15T15:02:55.958Z,37.50
2019-06-15T15:05:27.321Z,37.50
2019-06-15T15:07:56.758Z,37.40
2019-06-15T15:10:26.797Z,37.40
2019-06-15T15:12:56.789Z,37.30
2019-06-15T15:15:26.352Z,37.30
2019-06-15T15:17:57.765Z,37.20
2019-06-15T15:20:27.003Z,37.00
2019-06-15T15:22:56.937Z,37.10
2019-06-15T15:25:26.583Z,37.00
2019-06-15T15:27:57.134Z,36.80
2019-06-15T15:30:41.354Z,36.80
2019-06-15T15:33:10.818Z,36.70
2019-06-15T15:35:40.284Z,36.70
2019-06-15T15:38:09.746Z,35.70
2019-06-15T15:40:39.222Z,32.50
2019-06-15T15:43:08.825Z,32.60
2019-06-15T15:45:38.273Z,32.90
2019-06-15T15:48:07.740Z,32.50
2019-06-15T15:50:37.359Z,31.70
2019-06-15T15:53:06.801Z,32.00
2019-06-15T15:55:36.259Z,32.60
2019-06-15T15:58:06.791Z,31.70
2019-06-15T16:00:37.213Z,31.70
2019-06-15T16:03:07.274Z,32.00
2019-06-15T16:05:37.371Z,32.30
2019-06-15T16:08:06.997Z,32.20
2019-06-15T16:10:37.456Z,31.80
2019-06-15T16:13:07.111Z,31.70
2019-06-15T16:15:37.252Z,30.20
2019-06-15T16:18:07.162Z,29.80
2019-06-15T16:20:37.228Z,28.00
2019-06-15T16:23:07.495Z,28.20
2019-06-15T16:25:37.483Z,27.20
2019-06-15T16:28:07.506Z,25.70
2019-06-15T16:31:00.650Z,23.80
2019-06-15T16:33:08.396Z,22.90
2019-06-15T16:35:37.839Z,23.50
2019-06-15T16:38:07.407Z,22.80
2019-06-15T16:40:41.567Z,23.40
2019-06-15T16:43:11.019Z,22.50
2019-06-15T16:45:40.473Z,22.70
2019-06-15T16:48:09.967Z,24.40
2019-06-15T16:50:39.423Z,24.90
2019-06-15T16:53:08.903Z,25.30
2019-06-15T16:55:38.527Z,25.70
2019-06-15T16:58:07.966Z,25.80
2019-06-15T17:00:37.394Z,26.60
2019-06-15T17:03:19.677Z,26.90
2019-06-15T17:05:38.038Z,27.30
2019-06-15T17:08:07.838Z,27.30
2019-06-15T17:10:40.475Z,27.30
2019-06-15T17:13:11.485Z,27.50
2019-06-15T17:15:41.008Z,27.60
2019-06-15T17:18:12.705Z,27.60
2019-06-15T17:20:56.190Z,27.70
2019-06-15T17:23:27.351Z,27.70
2019-06-15T17:25:56.278Z,27.30
2019-06-15T17:28:26.538Z,27.20
2019-06-15T17:30:56.812Z,27.60
2019-06-15T17:33:36.536Z,27.70
2019-06-15T17:36:02.786Z,27.60
2019-06-15T17:38:28.947Z,27.60
2019-06-15T17:40:58.412Z,27.60
2019-06-15T17:43:33.621Z,27.60
2019-06-15T17:46:03.138Z,27.60
2019-06-15T17:48:32.658Z,26.80
2019-06-15T17:51:02.126Z,24.90
2019-06-15T17:53:33.701Z,24.00
2019-06-15T17:56:02.771Z,24.20
2019-06-15T17:58:32.235Z,23.40
2019-06-15T18:01:00.967Z,23.40
2019-06-15T18:03:29.705Z,23.30
2019-06-15T18:05:58.482Z,23.40
2019-06-15T18:08:28.198Z,23.20
2019-06-15T18:10:57.945Z,23.10
2019-06-15T18:13:27.381Z,23.10
2019-06-15T18:15:58.410Z,22.70
2019-06-15T18:18:28.061Z,22.90
2019-06-15T18:20:57.598Z,22.80
2019-06-15T18:23:27.067Z,23.00
2019-06-15T18:25:56.634Z,23.00
2019-06-15T18:28:26.594Z,23.20
2019-06-15T18:30:56.331Z,23.10
2019-06-15T18:33:27.186Z,23.30
2019-06-15T18:35:56.875Z,23.50
2019-06-15T18:38:26.330Z,23.40
2019-06-15T18:40:56.330Z,23.40
2019-06-15T18:43:26.333Z,24.10
2019-06-15T18:45:56.881Z,23.60
2019-06-15T18:48:26.669Z,23.70
2019-06-15T18:50:56.348Z,23.70
2019-06-15T18:53:26.839Z,24.20
2019-06-15T18:55:56.972Z,24.60
2019-06-15T18:58:27.058Z,24.70
2019-06-15T19:00:56.527Z,24.50
2019-06-15T19:03:26.716Z,24.80
2019-06-15T19:05:56.932Z,25.00
2019-06-15T19:08:26.724Z,25.00
2019-06-15T19:10:56.422Z,25.00
2019-06-15T19:13:26.837Z,24.70
2019-06-15T19:15:57.235Z,24.80
2019-06-15T19:18:26.945Z,23.90
2019-06-15T19:20:56.407Z,24.40
2019-06-15T19:23:26.560Z,24.10
2019-06-15T19:25:57.307Z,23.50
2019-06-15T19:28:27.086Z,23.20
2019-06-15T19:30:56.582Z,23.00
2019-06-15T19:33:26.717Z,23.00
2019-06-15T19:35:57.934Z,23.30
2019-06-15T19:38:27.466Z,23.60
2019-06-15T19:40:56.920Z,23.10
2019-06-15T19:43:26.386Z,22.90
2019-06-15T19:45:56.529Z,23.00
2019-06-15T19:48:26.771Z,23.20
2019-06-15T19:50:56.875Z,22.80
2019-06-15T19:53:27.244Z,22.80
2019-06-15T19:55:57.603Z,22.40
2019-06-15T19:58:27.275Z,22.60
2019-06-15T20:00:56.745Z,22.80
2019-06-15T20:03:27.483Z,22.80
2019-06-15T20:05:57.122Z,23.20
2019-06-15T20:08:26.685Z,22.80
2019-06-15T20:10:56.535Z,22.40
2019-06-15T20:13:26.285Z,22.70
2019-06-15T20:15:57.211Z,23.00
2019-06-15T20:18:30.110Z,22.80
2019-06-15T20:20:58.226Z,22.70
2019-06-15T20:23:28.854Z,22.60
2019-06-15T20:25:58.506Z,22.50
2019-06-15T20:28:27.990Z,22.00
2019-06-15T20:30:57.444Z,22.20
2019-06-15T20:33:26.946Z,22.10
2019-06-15T20:35:57.446Z,22.50
2019-06-15T20:38:27.271Z,22.30
2019-06-15T20:40:56.883Z,22.20
2019-06-15T20:43:27.304Z,23.00
2019-06-15T20:45:57.134Z,23.30
2019-06-15T20:48:26.962Z,23.50
2019-06-15T20:50:56.933Z,23.30
2019-06-15T20:53:26.479Z,23.40
2019-06-15T20:55:57.054Z,23.40
2019-06-15T20:58:26.574Z,23.30
2019-06-15T21:00:56.420Z,23.50
2019-06-15T21:03:26.820Z,23.30
2019-06-15T21:05:57.428Z,23.20
2019-06-15T21:08:27.137Z,23.40
2019-06-15T21:10:56.620Z,23.50
2019-06-15T21:13:26.523Z,23.50
2019-06-15T21:15:56.799Z,23.40
2019-06-15T21:18:26.493Z,23.60
2019-06-15T21:20:56.334Z,23.60
2019-06-15T21:23:26.839Z,23.60
2019-06-15T21:25:57.193Z,23.60
2019-06-15T21:28:27.346Z,23.40
2019-06-15T21:30:56.989Z,23.30
2019-06-15T21:33:26.639Z,23.60
2019-06-15T21:35:56.891Z,23.60
2019-06-15T21:38:26.690Z,23.40
2019-06-15T21:40:56.999Z,23.30
2019-06-15T21:43:26.780Z,23.40
2019-06-15T21:45:57.263Z,23.50
2019-06-15T21:48:27.030Z,23.10
2019-06-15T21:50:59.343Z,22.00
2019-06-15T21:53:27.799Z,21.90
2019-06-15T21:55:57.279Z,22.10
2019-06-15T21:58:27.275Z,21.90
2019-06-15T22:01:17.524Z,21.80
2019-06-15T22:03:47.147Z,21.70
2019-06-15T22:06:16.879Z,21.90
2019-06-15T22:08:46.527Z,21.80
2019-06-15T22:11:16.120Z,21.60
2019-06-15T22:13:46.391Z,21.40
2019-06-15T22:16:16.893Z,21.80
2019-06-15T22:18:47.528Z,22.40
2019-06-15T22:21:17.374Z,22.80
2019-06-15T22:23:47.408Z,22.70
2019-06-15T22:26:17.286Z,22.80
2019-06-15T22:28:47.217Z,22.70
2019-06-15T22:31:17.341Z,21.10
2019-06-15T22:33:47.439Z,21.40
2019-06-15T22:36:24.891Z,21.20
2019-06-15T22:38:48.177Z,21.20
2019-06-15T22:41:17.589Z,21.10
2019-06-15T22:43:47.075Z,21.20
2019-06-15T22:46:16.843Z,21.30
2019-06-15T22:48:47.067Z,21.90
2019-06-15T22:51:17.122Z,22.10
2019-06-15T22:53:47.345Z,21.70
2019-06-15T22:56:17.286Z,22.30
2019-06-15T22:58:47.007Z,22.50
2019-06-15T23:01:17.076Z,22.60
2019-06-15T23:03:46.903Z,22.60
2019-06-15T23:06:16.443Z,22.60
2019-06-15T23:08:47.067Z,22.60
2019-06-15T23:11:17.472Z,22.10
2019-06-15T23:13:47.228Z,22.20
2019-06-15T23:16:16.681Z,22.10
2019-06-15T23:18:46.780Z,21.80
2019-06-15T23:21:17.254Z,22.20
2019-06-15T23:23:47.300Z,22.40
2019-06-15T23:26:16.998Z,22.50
2019-06-15T23:28:46.872Z,22.50
2019-06-15T23:31:16.852Z,22.60
2019-06-15T23:33:46.994Z,22.60
2019-06-15T23:36:18.346Z,22.70
2019-06-15T23:38:47.827Z,22.70
2019-06-15T23:41:17.281Z,22.70
2019-06-15T23:43:46.775Z,22.60
2019-06-15T23:46:16.201Z,22.20
2019-06-15T23:48:47.021Z,21.80
2019-06-15T23:51:17.118Z,22.00
2019-06-15T23:53:46.903Z,22.20
2019-06-15T23:56:16.356Z,22.20
2019-06-15T23:58:46.355Z,21.70
